Time;durP1;ratioP1;P1;durP2;ratioP2;P2;SDS_P1;SDS_P2;PMS_P1;PMS_P2;Temp;Humidity;BMP_temperature;BMP_pressure;BME280_temperature;BME280_humidity;BME280_pressure;Samples;Min_cycle;Max_cycle;Signal;HPM_P1;HPM_P2
2023/09/15 00:01:28;;;;;;;4.07;1.93;;;;;;;22.74;69.18;99419.09;5111513;28;20252;-68
2023/09/15 00:03:55;;;;;;;1.80;1.70;;;;;;;22.71;69.46;99424.56;5111306;28;20202;-68
2023/09/15 00:06:22;;;;;;;2.13;2.03;;;;;;;22.57;69.57;99418.72;5111662;28;20208;-68
2023/09/15 00:08:50;;;;;;;1.50;1.40;;;;;;;22.56;69.47;99423.09;5111124;28;20644;-68
2023/09/15 00:11:17;;;;;;;2.67;1.67;;;;;;;22.61;68.76;99426.19;5111212;28;20586;-68
2023/09/15 00:13:44;;;;;;;2.00;1.30;;;;;;;22.59;68.44;99428.09;5111174;28;20199;-68
2023/09/15 00:16:11;;;;;;;1.67;1.57;;;;;;;22.56;68.60;99427.50;5111138;28;20205;-67
2023/09/15 00:18:38;;;;;;;1.97;1.43;;;;;;;22.61;68.41;99431.44;5111114;28;20866;-68
2023/09/15 00:21:05;;;;;;;1.20;1.03;;;;;;;22.64;68.59;99441.63;5111146;28;20198;-67
2023/09/15 00:23:32;;;;;;;1.90;1.80;;;;;;;22.63;68.71;99439.97;5111353;28;20230;-68
2023/09/15 00:26:04;;;;;;;2.50;1.43;;;;;;;22.68;68.09;99437.84;5111165;28;20609;-68
2023/09/15 00:28:31;;;;;;;1.77;1.67;;;;;;;22.71;68.16;99437.63;5111236;28;20570;-68
2023/09/15 00:30:59;;;;;;;1.90;1.80;;;;;;;22.72;68.38;99439.25;5110963;28;20198;-68
2023/09/15 00:33:25;;;;;;;1.60;1.50;;;;;;;22.63;69.27;99436.53;5111109;28;20191;-68
2023/09/15 00:35:52;;;;;;;1.33;1.23;;;;;;;22.57;68.90;99430.00;5111033;28;20195;-68
2023/09/15 00:38:20;;;;;;;2.30;1.80;;;;;;;22.59;69.20;99428.09;5110360;28;20214;-67
2023/09/15 00:40:47;;;;;;;1.63;1.53;;;;;;;22.56;69.36;99432.72;5110912;28;20637;-68
2023/09/15 00:43:15;;;;;;;3.17;1.40;;;;;;;22.58;69.23;99436.91;5110870;28;20567;-67
2023/09/15 00:45:42;;;;;;;5.07;1.20;;;;;;;22.60;69.43;99440.22;5110844;28;20253;-68
2023/09/15 00:48:10;;;;;;;1.97;1.87;;;;;;;22.56;69.97;99440.56;5113348;28;20213;-68
2023/09/15 00:50:37;;;;;;;1.43;1.33;;;;;;;22.65;69.55;99451.13;5115220;28;20731;-68
2023/09/15 00:53:05;;;;;;;4.00;1.17;;;;;;;22.73;69.44;99454.00;5114692;28;20202;-68
2023/09/15 00:55:34;;;;;;;1.53;1.40;;;;;;;22.73;69.52;99446.16;5114119;28;20297;-68
2023/09/15 00:58:10;;;;;;;3.30;1.50;;;;;;;22.74;69.30;99447.00;5114532;28;20258;-68
2023/09/15 01:00:41;;;;;;;1.23;1.13;;;;;;;22.61;70.05;99454.94;5114607;28;20199;-68
2023/09/15 01:03:09;;;;;;;1.40;1.40;;;;;;;22.56;69.86;99449.22;5114551;28;20195;-68
2023/09/15 01:05:37;;;;;;;1.40;1.30;;;;;;;22.47;70.60;99445.56;5114478;28;20208;-68
2023/09/15 01:08:04;;;;;;;1.40;1.30;;;;;;;22.40;70.97;99443.53;5113768;28;20339;-68
2023/09/15 01:10:32;;;;;;;1.17;1.17;;;;;;;22.43;70.76;99446.75;5113080;28;20206;-68
2023/09/15 01:12:58;;;;;;;1.63;1.53;;;;;;;22.46;70.99;99450.91;5112878;28;20667;-68
2023/09/15 01:15:31;;;;;;;1.57;1.37;;;;;;;22.44;71.08;99456.25;5114344;28;20688;-67
2023/09/15 01:18:08;;;;;;;1.50;1.40;;;;;;;22.46;70.78;99459.56;5113940;28;20210;-68
2023/09/15 01:21:01;;;;;;;1.63;1.23;;;;;;;22.45;71.27;99457.94;5112912;28;20191;-68
2023/09/15 01:23:49;;;;;;;4.50;1.80;;;;;;;22.34;71.46;99465.75;5114444;28;20654;-67
2023/09/15 01:26:42;;;;;;;1.63;1.43;;;;;;;22.29;72.08;99456.63;5114403;27;20199;-68
2023/09/15 01:29:40;;;;;;;1.83;1.73;;;;;;;22.28;71.71;99454.97;5105998;28;20207;-68
2023/09/15 01:32:09;;;;;;;1.67;1.47;;;;;;;22.27;71.76;99463.72;5114277;28;20686;-68
2023/09/15 01:34:36;;;;;;;1.97;1.20;;;;;;;22.25;72.41;99476.09;5114086;28;20217;-67
2023/09/15 01:37:03;;;;;;;2.30;1.50;;;;;;;22.27;72.46;99474.19;5113855;28;20290;-68
2023/09/15 01:39:31;;;;;;;2.67;2.20;;;;;;;22.26;72.35;99478.56;5113738;28;20195;-67
2023/09/15 01:41:58;;;;;;;1.53;1.50;;;;;;;22.27;72.36;99472.41;5113841;28;20591;-67
2023/09/15 01:44:25;;;;;;;3.33;1.73;;;;;;;22.31;71.66;99478.22;5113984;27;20194;-67
2023/09/15 01:46:53;;;;;;;3.97;2.10;;;;;;;22.25;72.33;99470.88;5113197;28;20229;-68
2023/09/15 01:49:21;;;;;;;2.70;1.40;;;;;;;22.08;72.70;99468.69;5111719;28;20642;-68
2023/09/15 01:51:49;;;;;;;1.50;1.43;;;;;;;22.13;72.80;99482.25;5113559;28;20227;-67
2023/09/15 01:54:17;;;;;;;1.60;1.50;;;;;;;22.10;72.60;99487.72;5113423;28;20198;-68
2023/09/15 01:56:44;;;;;;;1.10;1.10;;;;;;;22.09;72.69;99491.25;5113845;28;20759;-68
2023/09/15 01:59:11;;;;;;;1.73;1.63;;;;;;;22.10;72.85;99490.31;5112879;28;20630;-67
2023/09/15 02:01:37;;;;;;;1.47;1.37;;;;;;;22.05;72.99;99502.88;5113513;28;20268;-67
2023/09/15 02:04:06;;;;;;;2.30;1.17;;;;;;;22.00;73.09;99502.41;5113451;28;20698;-68
2023/09/15 02:06:33;;;;;;;1.20;1.20;;;;;;;22.01;73.40;99493.59;5113348;28;20199;-68
2023/09/15 02:09:00;;;;;;;1.50;1.50;;;;;;;21.73;73.48;99466.94;5113519;28;20199;-68
2023/09/15 02:11:26;;;;;;;1.23;1.23;;;;;;;21.81;74.09;99493.28;5113230;28;20193;-68
2023/09/15 02:13:53;;;;;;;1.70;1.60;;;;;;;21.81;73.64;99497.72;5113180;28;20194;-68
2023/09/15 02:16:20;;;;;;;1.70;1.37;;;;;;;21.79;74.37;99499.59;5113026;28;20207;-68
2023/09/15 02:18:47;;;;;;;1.83;1.73;;;;;;;21.78;73.16;99493.53;5112908;28;20221;-68
2023/09/15 02:21:15;;;;;;;1.47;1.37;;;;;;;21.75;72.82;99498.97;5113066;28;20198;-68
2023/09/15 02:23:41;;;;;;;1.53;1.43;;;;;;;21.81;72.16;99508.94;5113059;28;20209;-68
2023/09/15 02:26:08;;;;;;;4.57;1.90;;;;;;;21.77;71.65;99504.94;5113337;28;20228;-67
2023/09/15 02:28:35;;;;;;;1.93;1.83;;;;;;;21.62;71.72;99493.00;5113113;28;20277;-68
2023/09/15 02:31:04;;;;;;;1.60;1.50;;;;;;;21.66;72.33;99504.88;5112913;28;20191;-67
2023/09/15 02:33:31;;;;;;;1.43;1.40;;;;;;;21.67;71.58;99501.34;5112983;28;20251;-68
2023/09/15 02:35:58;;;;;;;1.50;1.40;;;;;;;21.64;71.65;99490.28;5112652;28;20202;-67
2023/09/15 02:38:26;;;;;;;1.70;1.60;;;;;;;21.63;71.45;99497.28;5112659;28;20222;-67
2023/09/15 02:40:53;;;;;;;1.60;1.33;;;;;;;21.60;71.33;99494.91;5112789;28;20555;-67
2023/09/15 02:43:20;;;;;;;1.50;1.40;;;;;;;21.64;72.00;99500.72;5112780;28;20198;-67
2023/09/15 02:45:47;;;;;;;1.43;1.33;;;;;;;21.69;71.83;99509.03;5112482;28;20223;-67
2023/09/15 02:48:14;;;;;;;2.97;1.27;;;;;;;21.67;71.58;99519.59;5112218;28;20191;-67
2023/09/15 02:50:45;;;;;;;1.57;1.10;;;;;;;21.65;71.60;99513.66;5112489;28;20723;-67
2023/09/15 02:53:12;;;;;;;1.27;1.27;;;;;;;21.61;71.10;99516.59;5112618;28;20636;-67
2023/09/15 02:55:40;;;;;;;1.50;1.40;;;;;;;21.55;71.57;99527.50;5112412;28;20205;-67
2023/09/15 02:58:07;;;;;;;2.03;1.40;;;;;;;21.58;71.90;99520.28;5112137;28;20221;-66
2023/09/15 03:00:33;;;;;;;1.17;1.13;;;;;;;21.60;72.20;99523.59;5112362;28;20247;-67
2023/09/15 03:03:00;;;;;;;2.00;1.33;;;;;;;21.56;72.00;99524.75;5109439;28;20194;-67
2023/09/15 03:05:27;;;;;;;1.20;1.20;;;;;;;21.57;72.26;99526.44;5112203;28;20204;-67
2023/09/15 03:07:54;;;;;;;1.97;1.67;;;;;;;21.60;72.49;99518.38;5112624;28;20205;-67
2023/09/15 03:10:21;;;;;;;2.50;1.27;;;;;;;21.62;72.38;99519.09;5112106;28;20578;-67
2023/09/15 03:12:51;;;;;;;2.50;1.57;;;;;;;21.65;72.91;99524.06;5112051;28;20669;-67
2023/09/15 03:15:18;;;;;;;1.77;1.10;;;;;;;21.64;73.24;99519.00;5112007;28;20670;-67
2023/09/15 03:17:45;;;;;;;1.53;1.43;;;;;;;21.62;73.81;99519.09;5111926;28;20202;-67
2023/09/15 03:20:15;;;;;;;1.57;1.47;;;;;;;21.57;73.96;99509.94;5111176;28;20198;-67
2023/09/15 03:22:42;;;;;;;6.43;1.40;;;;;;;21.56;74.32;99519.53;5112074;28;20639;-67
2023/09/15 03:25:09;;;;;;;1.13;1.13;;;;;;;21.56;74.53;99526.53;5111848;28;20213;-67
2023/09/15 03:27:36;;;;;;;1.40;1.30;;;;;;;21.54;74.59;99529.28;5112118;28;20657;-67
2023/09/15 03:30:06;;;;;;;1.93;1.83;;;;;;;21.49;75.26;99528.75;5111659;28;20197;-67
2023/09/15 03:32:33;;;;;;;1.67;1.47;;;;;;;21.47;75.03;99533.25;5111658;28;20201;-67
2023/09/15 03:35:00;;;;;;;4.23;1.37;;;;;;;21.41;75.71;99531.09;5111897;28;20208;-67
2023/09/15 03:37:27;;;;;;;1.40;1.30;;;;;;;21.40;75.89;99540.69;5111694;28;20194;-67
2023/09/15 03:39:54;;;;;;;6.33;1.57;;;;;;;21.34;76.33;99535.09;5111548;28;20214;-67
2023/09/15 03:42:21;;;;;;;1.90;1.80;;;;;;;21.23;76.56;99540.22;5111563;28;20628;-68
2023/09/15 03:44:48;;;;;;;1.90;1.40;;;;;;;21.17;76.04;99535.47;5111621;28;20233;-67
2023/09/15 03:47:16;;;;;;;1.53;1.43;;;;;;;21.30;76.58;99552.72;5111379;28;20219;-67
2023/09/15 03:49:43;;;;;;;1.53;1.43;;;;;;;21.32;76.88;99553.47;5111379;28;20198;-67
2023/09/15 03:52:10;;;;;;;1.43;1.43;;;;;;;21.32;77.41;99556.09;5111453;28;20209;-67
2023/09/15 03:54:37;;;;;;;2.60;1.50;;;;;;;21.34;77.59;99558.56;5111389;28;20205;-67
2023/09/15 03:57:06;;;;;;;1.33;1.30;;;;;;;21.32;77.42;99563.06;5111365;28;20206;-67
2023/09/15 03:59:34;;;;;;;1.50;1.40;;;;;;;21.19;77.54;99551.84;5111497;28;20279;-69
2023/09/15 04:02:01;;;;;;;1.67;1.57;;;;;;;21.24;78.09;99570.59;5111298;28;20278;-67
2023/09/15 04:04:30;;;;;;;1.43;1.43;;;;;;;21.18;78.70;99571.03;5110936;28;20197;-67
2023/09/15 04:06:56;;;;;;;1.90;1.80;;;;;;;21.16;78.58;99572.94;5105709;28;20201;-67
2023/09/15 04:09:24;;;;;;;2.53;1.40;;;;;;;21.13;78.85;99567.94;5108790;28;20224;-67
2023/09/15 04:11:51;;;;;;;1.43;1.33;;;;;;;21.05;79.66;99564.97;5111565;28;20693;-67
2023/09/15 04:14:18;;;;;;;3.97;2.70;;;;;;;21.02;80.35;99570.41;5111366;28;20198;-67
2023/09/15 04:16:45;;;;;;;5.57;2.80;;;;;;;20.99;80.51;99571.47;5111062;28;20215;-67
2023/09/15 04:19:11;;;;;;;1.63;1.53;;;;;;;20.96;81.27;99576.91;5111167;28;20222;-67
2023/09/15 04:21:39;;;;;;;2.13;1.93;;;;;;;20.89;81.83;99575.66;5111357;28;20193;-67
2023/09/15 04:24:07;;;;;;;2.97;2.73;;;;;;;20.83;82.85;99576.91;5115355;28;20190;-67
2023/09/15 04:26:34;;;;;;;4.27;2.23;;;;;;;20.81;83.71;99584.00;5115235;28;20286;-67
2023/09/15 04:29:01;;;;;;;4.00;2.20;;;;;;;20.84;84.14;99593.41;5115482;28;20265;-67
2023/09/15 04:31:27;;;;;;;4.50;2.93;;;;;;;20.89;84.16;99592.13;5115021;28;20206;-67
2023/09/15 04:33:54;;;;;;;3.03;2.43;;;;;;;20.79;85.06;99596.31;5115247;28;20197;-67
2023/09/15 04:36:21;;;;;;;2.67;2.47;;;;;;;20.81;85.45;99597.03;5115045;28;20208;-67
2023/09/15 04:38:49;;;;;;;3.53;2.33;;;;;;;20.86;85.65;99605.38;5114905;28;20222;-67
2023/09/15 04:41:16;;;;;;;2.90;2.70;;;;;;;20.89;86.07;99599.94;5115054;27;20212;-67
2023/09/15 04:43:42;;;;;;;5.70;2.83;;;;;;;20.97;85.56;99606.41;5115141;28;20198;-67
2023/09/15 04:46:09;;;;;;;4.27;2.37;;;;;;;20.99;85.65;99607.97;5115155;28;20652;-67
2023/09/15 04:48:36;;;;;;;2.47;1.97;;;;;;;21.12;85.96;99610.56;5111965;28;20574;-67
2023/09/15 04:51:03;;;;;;;2.80;2.60;;;;;;;21.21;85.83;99612.53;5115206;28;20202;-67
2023/09/15 04:53:30;;;;;;;10.13;2.40;;;;;;;21.31;86.13;99611.78;5114782;28;20205;-67
2023/09/15 04:55:58;;;;;;;10.13;2.63;;;;;;;21.40;86.42;99612.91;5114661;28;20209;-67
2023/09/15 04:58:25;;;;;;;2.80;2.23;;;;;;;21.51;85.22;99610.38;5114775;28;20256;-67
2023/09/15 05:00:52;;;;;;;2.47;2.27;;;;;;;21.54;84.06;99614.53;5114647;28;20690;-67
2023/09/15 05:03:19;;;;;;;2.00;1.87;;;;;;;21.58;84.77;99614.22;5114281;27;20206;-67
2023/09/15 05:05:50;;;;;;;1.70;1.60;;;;;;;21.59;84.58;99608.03;5114286;28;20194;-67
2023/09/15 05:08:18;;;;;;;3.53;1.80;;;;;;;21.67;83.88;99613.53;5114688;28;20203;-67
2023/09/15 05:10:47;;;;;;;2.10;1.67;;;;;;;21.78;82.93;99613.56;5112120;28;20194;-67
2023/09/15 05:13:15;;;;;;;2.83;1.63;;;;;;;21.94;83.28;99618.53;5114790;28;20571;-67
2023/09/15 05:15:42;;;;;;;5.03;1.90;;;;;;;22.11;82.98;99620.75;5114272;27;20578;-66
2023/09/15 05:18:09;;;;;;;1.77;1.67;;;;;;;22.22;80.03;99622.56;5114386;27;20198;-67
2023/09/15 05:20:35;;;;;;;2.93;2.57;;;;;;;22.38;79.41;99623.09;5114188;28;20211;-67
2023/09/15 05:23:02;;;;;;;1.87;1.77;;;;;;;22.52;78.08;99620.25;5114197;28;20544;-67
2023/09/15 05:25:29;;;;;;;2.13;2.03;;;;;;;22.60;76.25;99609.22;5114352;28;20618;-67
2023/09/15 05:27:55;;;;;;;2.20;1.33;;;;;;;22.81;75.62;99626.75;5114204;28;20198;-67
2023/09/15 05:30:24;;;;;;;2.43;1.57;;;;;;;22.95;75.73;99631.75;5114238;28;20199;-67
2023/09/15 05:32:50;;;;;;;2.00;1.80;;;;;;;23.02;74.92;99622.47;5113752;28;20206;-67
2023/09/15 05:35:17;;;;;;;2.50;1.77;;;;;;;23.09;73.58;99619.38;5112883;28;20203;-67
2023/09/15 05:37:44;;;;;;;1.27;1.17;;;;;;;23.16;71.16;99623.19;5113858;28;20207;-67
2023/09/15 05:40:12;;;;;;;4.47;1.63;;;;;;;23.30;71.55;99622.91;5111813;28;20443;-65
2023/09/15 05:42:38;;;;;;;1.10;1.10;;;;;;;23.56;71.95;99626.94;5113508;28;20203;-62
2023/09/15 05:45:06;;;;;;;1.10;1.10;;;;;;;23.74;70.47;99622.03;5112539;28;20563;-63
2023/09/15 05:47:34;;;;;;;1.67;1.40;;;;;;;23.66;68.89;99609.56;5112948;28;20230;-62
2023/09/15 05:50:04;;;;;;;5.70;2.07;;;;;;;23.90;69.44;99628.53;5110356;28;20191;-62
2023/09/15 05:52:30;;;;;;;2.60;1.80;;;;;;;24.08;69.45;99630.59;5113392;28;20694;-62
2023/09/15 05:54:57;;;;;;;4.43;1.67;;;;;;;24.27;67.57;99633.38;5112709;28;20195;-63
2023/09/15 05:57:24;;;;;;;1.43;1.43;;;;;;;24.42;67.33;99624.25;5109749;28;20660;-63
2023/09/15 05:59:51;;;;;;;1.47;1.33;;;;;;;24.62;64.24;99640.94;5111380;28;20210;-63
2023/09/15 06:02:20;;;;;;;1.57;1.47;;;;;;;24.79;64.62;99633.28;5107714;28;20206;-63
2023/09/15 06:04:49;;;;;;;1.57;1.47;;;;;;;25.01;65.05;99642.81;5112752;28;20252;-63
2023/09/15 06:07:17;;;;;;;1.57;1.40;;;;;;;25.14;64.32;99635.53;5113298;28;20197;-63
2023/09/15 06:09:45;;;;;;;2.00;1.90;;;;;;;25.34;65.24;99637.28;5112300;28;20202;-63
2023/09/15 06:12:12;;;;;;;1.60;1.50;;;;;;;25.52;64.56;99632.25;5111455;27;20202;-63
2023/09/15 06:14:39;;;;;;;3.53;1.20;;;;;;;25.69;64.69;99639.44;5111042;27;20586;-63
2023/09/15 06:17:05;;;;;;;1.83;1.73;;;;;;;25.76;62.11;99634.47;5111509;28;20676;-61
2023/09/15 06:19:32;;;;;;;1.93;1.83;;;;;;;25.91;61.21;99639.19;5111397;28;20229;-62
2023/09/15 06:22:00;;;;;;;2.27;2.17;;;;;;;25.98;61.94;99635.06;5111242;28;20198;-61
2023/09/15 06:24:27;;;;;;;6.90;1.60;;;;;;;25.95;62.78;99645.84;5111551;28;20685;-61
2023/09/15 06:26:54;;;;;;;2.10;2.00;;;;;;;26.09;62.32;99632.28;5110549;28;20259;-61
2023/09/15 06:29:21;;;;;;;2.20;2.10;;;;;;;26.25;61.27;99646.69;5110909;28;20201;-61
2023/09/15 06:31:49;;;;;;;2.37;2.17;;;;;;;26.28;60.07;99643.78;5109813;28;20298;-61
2023/09/15 06:34:15;;;;;;;1.60;1.50;;;;;;;26.28;59.43;99642.00;5110859;28;20282;-61
2023/09/15 06:36:42;;;;;;;2.43;2.33;;;;;;;26.46;59.46;99644.75;5110496;28;20685;-62
2023/09/15 06:39:11;;;;;;;4.23;2.70;;;;;;;26.67;58.54;99648.00;5110865;28;20218;-62
2023/09/15 06:41:38;;;;;;;2.13;2.03;;;;;;;26.79;59.86;99644.25;5111140;28;20230;-62
2023/09/15 06:44:05;;;;;;;2.10;2.00;;;;;;;26.86;61.18;99650.63;5110375;28;20207;-61
2023/09/15 06:46:32;;;;;;;1.97;1.87;;;;;;;26.93;61.87;99649.06;5110326;27;20226;-61
2023/09/15 06:48:58;;;;;;;3.03;2.93;;;;;;;26.97;60.60;99650.47;5113711;27;20297;-61
2023/09/15 06:51:26;;;;;;;4.77;3.37;;;;;;;27.04;60.58;99648.06;5111440;28;20194;-61
2023/09/15 06:53:53;;;;;;;3.67;2.50;;;;;;;27.09;59.62;99649.28;5111249;28;20198;-61
2023/09/15 06:56:21;;;;;;;2.60;2.40;;;;;;;27.24;60.18;99651.47;5110792;28;20229;-62
2023/09/15 06:58:48;;;;;;;2.00;1.80;;;;;;;27.29;61.32;99649.19;5111142;28;20207;-61
2023/09/15 07:01:14;;;;;;;4.13;2.03;;;;;;;27.41;60.86;99653.28;5111054;28;20260;-61
2023/09/15 07:03:41;;;;;;;2.40;2.30;;;;;;;27.52;59.32;99647.88;5110857;28;20198;-62
2023/09/15 07:06:08;;;;;;;2.37;2.27;;;;;;;27.71;58.04;99647.75;5110450;28;20198;-62
2023/09/15 07:08:35;;;;;;;5.17;1.80;;;;;;;27.83;56.28;99649.19;5110770;28;20606;-61
2023/09/15 07:11:01;;;;;;;2.40;2.20;;;;;;;27.97;57.29;99650.47;5110290;28;20214;-61
2023/09/15 07:13:29;;;;;;;2.40;2.13;;;;;;;28.12;56.69;99649.81;5110006;28;20203;-61
2023/09/15 07:15:56;;;;;;;2.20;2.10;;;;;;;28.25;55.55;99648.59;5110203;28;20658;-62
2023/09/15 07:18:23;;;;;;;1.97;1.87;;;;;;;28.22;54.00;99638.34;5110569;28;20271;-62
2023/09/15 07:20:50;;;;;;;1.90;1.23;;;;;;;28.27;55.83;99638.72;5110711;28;20211;-61
2023/09/15 07:23:17;;;;;;;1.57;1.47;;;;;;;28.26;54.36;99644.97;5110706;28;20719;-63
2023/09/15 07:25:45;;;;;;;2.00;1.80;;;;;;;28.43;53.31;99646.78;5110899;28;20570;-61
2023/09/15 07:28:12;;;;;;;1.43;1.33;;;;;;;28.37;51.08;99642.13;5111038;28;20262;-62
2023/09/15 07:30:41;;;;;;;1.43;1.33;;;;;;;28.11;52.93;99637.59;5110710;28;20199;-63
2023/09/15 07:33:08;;;;;;;1.57;1.47;;;;;;;28.14;52.46;99632.03;5110777;28;20202;-62
2023/09/15 07:35:36;;;;;;;1.47;1.37;;;;;;;28.25;52.33;99640.69;5110372;28;20283;-61
2023/09/15 07:38:02;;;;;;;2.00;1.33;;;;;;;28.30;52.73;99647.16;5109898;28;20658;-62
2023/09/15 07:40:29;;;;;;;9.73;2.17;;;;;;;28.23;51.59;99645.28;5109860;28;20241;-62
2023/09/15 07:42:56;;;;;;;2.27;1.50;;;;;;;28.44;53.40;99645.75;5109879;28;20203;-62
2023/09/15 07:45:24;;;;;;;1.93;1.83;;;;;;;28.58;54.33;99624.13;5109508;28;20195;-61
2023/09/15 07:47:52;;;;;;;1.90;1.70;;;;;;;28.82;52.73;99647.22;5109453;28;20198;-61
2023/09/15 07:50:20;;;;;;;1.87;1.70;;;;;;;29.00;51.46;99651.44;5110341;28;20214;-61
2023/09/15 07:52:47;;;;;;;1.50;1.50;;;;;;;29.24;51.54;99641.97;5109274;28;20226;-61
2023/09/15 07:55:14;;;;;;;2.73;1.60;;;;;;;29.46;50.38;99647.53;5108036;28;20290;-61
2023/09/15 07:57:41;;;;;;;1.77;1.67;;;;;;;29.55;49.96;99648.38;5108835;28;20214;-61
2023/09/15 08:00:10;;;;;;;1.55;1.30;;;;;;;29.63;48.98;99637.81;5109041;28;20214;-62
2023/09/15 08:02:37;;;;;;;3.67;1.52;;;;;;;29.70;48.62;99637.00;5109657;28;20754;-61
2023/09/15 08:05:06;;;;;;;4.17;1.57;;;;;;;29.78;46.50;99644.16;5109450;28;20241;-63
2023/09/15 08:07:32;;;;;;;3.08;1.90;;;;;;;29.79;46.50;99637.84;5108457;28;20221;-62
2023/09/15 08:10:01;;;;;;;1.77;1.67;;;;;;;29.83;45.29;99639.22;5110483;28;20198;-62
2023/09/15 08:12:27;;;;;;;1.52;1.42;;;;;;;29.66;45.04;99632.25;5108041;28;20662;-63
2023/09/15 08:14:54;;;;;;;1.70;1.60;;;;;;;29.77;45.17;99634.56;5108707;28;20222;-61
2023/09/15 08:17:21;;;;;;;1.70;1.63;;;;;;;30.00;46.48;99622.38;5109553;28;20213;-62
2023/09/15 08:19:48;;;;;;;1.50;1.40;;;;;;;30.14;44.25;99621.75;5109509;28;20218;-62
2023/09/15 08:22:16;;;;;;;2.03;1.90;;;;;;;30.32;45.08;99634.78;5109593;28;20290;-63
2023/09/15 08:24:43;;;;;;;1.50;1.50;;;;;;;30.40;42.64;99632.16;5109621;28;20201;-63
2023/09/15 08:27:09;;;;;;;1.40;1.40;;;;;;;30.48;43.71;99623.38;5109998;28;20210;-62
2023/09/15 08:29:36;;;;;;;1.38;1.38;;;;;;;30.69;44.03;99631.63;5109310;28;20612;-62
2023/09/15 08:32:04;;;;;;;1.77;1.67;;;;;;;30.75;42.85;99619.53;5109482;28;20243;-62
2023/09/15 08:34:30;;;;;;;1.48;1.48;;;;;;;30.95;42.29;99620.78;5110529;28;20226;-63
2023/09/15 08:36:57;;;;;;;2.15;1.20;;;;;;;30.99;43.73;99606.22;5110312;28;20627;-63
2023/09/15 08:39:25;;;;;;;1.30;1.30;;;;;;;31.02;43.35;99613.84;5110456;28;20205;-62
2023/09/15 08:41:58;;;;;;;1.95;1.85;;;;;;;31.01;43.05;99597.13;5110446;28;20198;-63
2023/09/15 08:44:25;;;;;;;5.78;1.40;;;;;;;31.26;41.15;99618.19;5110256;28;20191;-62
2023/09/15 08:46:52;;;;;;;1.23;1.23;;;;;;;31.24;42.51;99605.16;5110247;28;20302;-62
2023/09/15 08:49:20;;;;;;;1.52;1.52;;;;;;;31.21;41.18;99601.00;5110611;28;20214;-63
2023/09/15 08:51:47;;;;;;;1.60;1.50;;;;;;;31.30;41.02;99595.66;5108652;28;20202;-63
2023/09/15 08:54:14;;;;;;;1.60;1.60;;;;;;;31.20;41.04;99591.41;5109335;28;20202;-62
2023/09/15 08:56:44;;;;;;;2.25;1.52;;;;;;;31.31;39.19;99594.69;5107201;28;20615;-63
2023/09/15 08:59:11;;;;;;;1.30;1.30;;;;;;;31.35;39.39;99590.66;5110004;28;20202;-63
2023/09/15 09:01:39;;;;;;;1.33;1.33;;;;;;;31.47;40.11;99591.94;5108321;28;20219;-64
2023/09/15 09:04:06;;;;;;;2.33;1.25;;;;;;;31.51;40.02;99593.25;5108498;28;20259;-63
2023/09/15 09:06:35;;;;;;;1.98;1.50;;;;;;;31.58;41.27;99586.25;5108172;28;20654;-64
2023/09/15 09:09:02;;;;;;;1.52;1.42;;;;;;;31.69;39.94;99588.50;5111150;28;20290;-64
2023/09/15 09:11:29;;;;;;;2.30;1.73;;;;;;;31.59;40.25;99587.91;5113425;28;20195;-63
2023/09/15 09:13:58;;;;;;;1.60;1.40;;;;;;;31.69;39.75;99596.47;5113518;28;20671;-62
2023/09/15 09:16:25;;;;;;;1.08;1.05;;;;;;;31.86;38.73;99579.41;5113689;28;20202;-65
2023/09/15 09:18:57;;;;;;;1.40;1.38;;;;;;;31.96;38.05;99589.78;5113295;28;20206;-63
2023/09/15 09:21:25;;;;;;;1.20;1.20;;;;;;;31.68;38.06;99590.31;5109368;28;20207;-63
2023/09/15 09:23:52;;;;;;;1.52;1.50;;;;;;;31.82;40.00;99583.44;5112689;28;20294;-64
2023/09/15 09:26:19;;;;;;;1.60;1.50;;;;;;;31.92;40.96;99588.50;5112675;28;20203;-63
2023/09/15 09:28:46;;;;;;;1.88;1.75;;;;;;;32.07;38.71;99581.44;5108694;27;20214;-63
2023/09/15 09:31:14;;;;;;;3.20;1.50;;;;;;;32.01;39.89;99588.25;5111291;28;20199;-65
2023/09/15 09:33:42;;;;;;;3.30;1.85;;;;;;;31.86;38.55;99579.41;5112306;28;20678;-64
2023/09/15 09:36:13;;;;;;;1.85;1.67;;;;;;;31.96;37.41;99564.06;5111751;28;20202;-64
2023/09/15 09:38:41;;;;;;;1.55;1.48;;;;;;;31.85;38.29;99572.47;5112970;28;20203;-64
2023/09/15 09:41:10;;;;;;;1.23;1.23;;;;;;;32.02;40.66;99570.53;5111566;28;20214;-63
2023/09/15 09:43:37;;;;;;;1.77;1.67;;;;;;;31.99;39.11;99571.69;5111347;28;20338;-63
2023/09/15 09:46:04;;;;;;;1.50;1.50;;;;;;;32.08;39.09;99560.03;5111444;28;20234;-64
2023/09/15 09:48:34;;;;;;;1.55;1.55;;;;;;;32.02;38.06;99549.28;5112471;28;20233;-64
2023/09/15 09:51:01;;;;;;;1.60;1.50;;;;;;;31.76;38.86;99532.94;5111587;28;20551;-64
2023/09/15 09:53:29;;;;;;;3.20;2.25;;;;;;;31.81;39.47;99554.44;5111352;28;20214;-63
2023/09/15 09:55:57;;;;;;;1.77;1.67;;;;;;;31.87;38.57;99553.72;5111952;28;20566;-65
2023/09/15 09:58:24;;;;;;;5.00;1.30;;;;;;;31.74;38.95;99549.84;5111115;28;20206;-63
2023/09/15 10:00:51;;;;;;;1.63;1.52;;;;;;;31.66;38.14;99551.75;5111692;28;20654;-65
2023/09/15 10:03:18;;;;;;;1.70;1.60;;;;;;;31.66;40.96;99543.78;5110815;28;20223;-65
2023/09/15 10:05:47;;;;;;;1.42;1.42;;;;;;;31.65;39.14;99544.78;5110165;27;20214;-63
2023/09/15 10:08:15;;;;;;;2.90;1.73;;;;;;;31.58;40.47;99543.84;5111941;28;20205;-63
2023/09/15 10:10:44;;;;;;;1.58;1.48;;;;;;;31.64;39.81;99527.22;5111395;28;20286;-62
2023/09/15 10:13:11;;;;;;;1.63;1.52;;;;;;;31.73;39.19;99542.06;5111316;28;20241;-63
2023/09/15 10:15:40;;;;;;;1.83;1.73;;;;;;;31.75;38.93;99545.38;5112130;28;20255;-65
2023/09/15 10:18:09;;;;;;;1.80;1.70;;;;;;;31.78;39.62;99550.31;5111190;28;20206;-65
2023/09/15 10:20:37;;;;;;;1.60;1.50;;;;;;;31.79;39.11;99544.03;5109450;28;20215;-65
2023/09/15 10:23:06;;;;;;;1.80;1.70;;;;;;;31.91;38.83;99541.75;5112092;28;20207;-65
2023/09/15 10:25:41;;;;;;;2.03;1.55;;;;;;;31.88;39.77;99539.47;5112059;28;20206;-63
2023/09/15 10:28:09;;;;;;;1.83;1.73;;;;;;;31.85;39.33;99539.81;5108438;28;20297;-65
2023/09/15 10:30:37;;;;;;;1.85;1.75;;;;;;;31.75;39.47;99540.06;5111502;28;20202;-65
2023/09/15 10:33:04;;;;;;;1.50;1.50;;;;;;;31.63;38.34;99530.91;5110659;28;20658;-63
2023/09/15 10:35:33;;;;;;;1.70;1.60;;;;;;;31.21;38.56;99532.13;5111947;28;20203;-66
2023/09/15 10:38:03;;;;;;;1.92;1.67;;;;;;;31.32;39.24;99522.94;5111523;28;20238;-65
2023/09/15 10:40:43;;;;;;;2.10;1.92;;;;;;;31.26;40.39;99522.81;5111873;28;20305;-64
2023/09/15 10:43:10;;;;;;;2.00;1.90;;;;;;;31.45;40.05;99520.53;5110139;27;20206;-63
2023/09/15 10:45:37;;;;;;;2.00;1.95;;;;;;;31.51;39.98;99508.44;5112286;27;20242;-64
2023/09/15 10:48:05;;;;;;;1.30;1.27;;;;;;;31.70;39.83;99510.59;5111977;28;20206;-65
2023/09/15 10:50:33;;;;;;;1.65;1.55;;;;;;;31.79;39.83;99509.56;5111901;27;20226;-63
2023/09/15 10:53:09;;;;;;;1.52;1.42;;;;;;;31.73;39.61;99503.13;5110280;28;20203;-65
2023/09/15 10:55:38;;;;;;;1.80;1.80;;;;;;;31.58;39.94;99512.03;5111549;28;20209;-65
2023/09/15 10:58:06;;;;;;;3.63;1.35;;;;;;;31.72;41.04;99506.78;5110913;28;20202;-63
2023/09/15 11:00:33;;;;;;;1.67;1.58;;;;;;;31.74;39.24;99498.66;5111015;28;20221;-64
2023/09/15 11:03:01;;;;;;;1.63;1.52;;;;;;;31.65;39.79;99497.91;5112649;28;20206;-65
2023/09/15 11:05:29;;;;;;;2.20;2.10;;;;;;;31.45;40.05;99503.81;5111343;28;20199;-66
2023/09/15 11:07:56;;;;;;;1.60;1.50;;;;;;;31.40;40.39;99498.25;5111796;28;20586;-65
2023/09/15 11:10:28;;;;;;;5.35;1.52;;;;;;;31.21;39.64;99504.84;5111331;28;20608;-65
2023/09/15 11:13:01;;;;;;;2.30;2.15;;;;;;;31.28;40.67;99500.47;5110682;28;20284;-65
2023/09/15 11:15:28;;;;;;;3.38;1.50;;;;;;;31.26;41.27;99499.00;5111004;28;20202;-65
2023/09/15 11:17:55;;;;;;;1.60;1.50;;;;;;;31.34;40.25;99491.00;5111336;28;20203;-66
2023/09/15 11:20:22;;;;;;;3.15;1.90;;;;;;;31.43;40.55;99484.63;5111542;28;20226;-63
2023/09/15 11:22:55;;;;;;;1.15;1.15;;;;;;;31.43;41.15;99482.81;5110082;28;20217;-65
2023/09/15 11:25:22;;;;;;;3.45;1.85;;;;;;;31.44;39.67;99488.94;5110504;28;20195;-64
2023/09/15 11:27:49;;;;;;;1.70;1.60;;;;;;;31.50;40.25;99488.25;5110864;28;20202;-63
2023/09/15 11:30:17;;;;;;;1.88;1.77;;;;;;;31.65;40.59;99475.88;5110736;28;20195;-64
2023/09/15 11:32:44;;;;;;;1.13;1.13;;;;;;;31.86;39.64;99478.63;5109555;28;20210;-66
2023/09/15 11:35:12;;;;;;;2.00;1.55;;;;;;;31.89;39.86;99478.28;5111109;28;20270;-65
2023/09/15 11:37:40;;;;;;;2.85;1.50;;;;;;;31.95;41.03;99477.59;5113418;27;20198;-64